sensor_id;sensor_type;location;lat;lon;timestamp;pressure;altitude;pressure_sealevel;temperature;humidity
53041;BME280;39326;42.650;23.248;2023-03-23T00:00:37;92514.72;;;4.83;84.28
53041;BME280;39326;42.650;23.248;2023-03-23T00:03:02;92508.38;;;4.88;84.51
53041;BME280;39326;42.650;23.248;2023-03-23T00:05:28;92506.44;;;4.85;84.63
53041;BME280;39326;42.650;23.248;2023-03-23T00:07:54;92495.53;;;4.86;84.33
53041;BME280;39326;42.650;23.248;2023-03-23T00:10:21;92503.16;;;4.91;84.08
53041;BME280;39326;42.650;23.248;2023-03-23T00:12:46;92498.31;;;4.93;83.87
53041;BME280;39326;42.650;23.248;2023-03-23T00:15:14;92497.19;;;4.94;83.06
53041;BME280;39326;42.650;23.248;2023-03-23T00:17:42;92498.00;;;4.99;83.22
53041;BME280;39326;42.650;23.248;2023-03-23T00:20:08;92490.44;;;4.97;83.00
53041;BME280;39326;42.650;23.248;2023-03-23T00:22:37;92496.84;;;4.96;82.84
53041;BME280;39326;42.650;23.248;2023-03-23T00:25:04;92500.50;;;4.91;83.11
53041;BME280;39326;42.650;23.248;2023-03-23T00:27:30;92509.97;;;4.92;83.11
53041;BME280;39326;42.650;23.248;2023-03-23T00:29:55;92508.13;;;4.93;83.29
53041;BME280;39326;42.650;23.248;2023-03-23T00:32:23;92505.03;;;4.72;83.65
53041;BME280;39326;42.650;23.248;2023-03-23T00:34:53;92499.00;;;4.71;83.71
53041;BME280;39326;42.650;23.248;2023-03-23T00:37:18;92507.19;;;4.66;83.87
53041;BME280;39326;42.650;23.248;2023-03-23T00:39:44;92509.06;;;4.65;84.51
53041;BME280;39326;42.650;23.248;2023-03-23T00:42:14;92512.72;;;4.61;84.74
53041;BME280;39326;42.650;23.248;2023-03-23T00:44:40;92508.81;;;4.55;84.87
53041;BME280;39326;42.650;23.248;2023-03-23T00:47:06;92511.47;;;4.55;84.54
53041;BME280;39326;42.650;23.248;2023-03-23T00:49:34;92511.16;;;4.56;85.10
53041;BME280;39326;42.650;23.248;2023-03-23T00:52:01;92518.09;;;4.64;84.51
53041;BME280;39326;42.650;23.248;2023-03-23T00:54:27;92508.69;;;4.67;85.16
53041;BME280;39326;42.650;23.248;2023-03-23T00:56:53;92519.44;;;4.74;84.68
53041;BME280;39326;42.650;23.248;2023-03-23T00:59:19;92519.59;;;4.81;84.83
53041;BME280;39326;42.650;23.248;2023-03-23T01:01:45;92521.50;;;4.84;84.12
53041;BME280;39326;42.650;23.248;2023-03-23T01:04:10;92524.25;;;4.88;84.27
53041;BME280;39326;42.650;23.248;2023-03-23T01:06:40;92521.31;;;4.93;84.21
53041;BME280;39326;42.650;23.248;2023-03-23T01:09:13;92518.38;;;4.98;84.11
53041;BME280;39326;42.650;23.248;2023-03-23T01:11:45;92520.00;;;5.03;84.63
53041;BME280;39326;42.650;23.248;2023-03-23T01:14:13;92513.72;;;4.91;84.63
53041;BME280;39326;42.650;23.248;2023-03-23T01:16:39;92524.44;;;4.99;84.83
53041;BME280;39326;42.650;23.248;2023-03-23T01:19:05;92521.47;;;5.00;84.73
53041;BME280;39326;42.650;23.248;2023-03-23T01:21:31;92521.03;;;4.98;84.71
53041;BME280;39326;42.650;23.248;2023-03-23T01:23:57;92519.94;;;4.99;84.87
53041;BME280;39326;42.650;23.248;2023-03-23T01:26:24;92515.81;;;5.02;84.83
53041;BME280;39326;42.650;23.248;2023-03-23T01:28:51;92518.88;;;5.04;84.90
53041;BME280;39326;42.650;23.248;2023-03-23T01:31:22;92515.13;;;5.05;85.15
53041;BME280;39326;42.650;23.248;2023-03-23T01:33:48;92515.47;;;5.03;85.39
53041;BME280;39326;42.650;23.248;2023-03-23T01:36:21;92514.31;;;5.01;85.88
53041;BME280;39326;42.650;23.248;2023-03-23T01:38:48;92512.41;;;5.01;86.14
53041;BME280;39326;42.650;23.248;2023-03-23T01:41:15;92515.47;;;5.03;86.15
53041;BME280;39326;42.650;23.248;2023-03-23T01:44:02;92515.81;;;5.02;86.31
53041;BME280;39326;42.650;23.248;2023-03-23T01:46:31;92515.06;;;5.01;86.69
53041;BME280;39326;42.650;23.248;2023-03-23T01:49:12;92512.00;;;4.99;86.86
53041;BME280;39326;42.650;23.248;2023-03-23T01:51:49;92513.03;;;4.94;87.33
53041;BME280;39326;42.650;23.248;2023-03-23T01:54:18;92499.47;;;4.96;87.64
53041;BME280;39326;42.650;23.248;2023-03-23T01:56:56;92498.84;;;5.03;87.42
53041;BME280;39326;42.650;23.248;2023-03-23T01:59:24;92481.63;;;4.89;87.29
53041;BME280;39326;42.650;23.248;2023-03-23T02:01:51;92500.06;;;5.05;86.77
53041;BME280;39326;42.650;23.248;2023-03-23T02:04:19;92498.00;;;4.99;86.87
53041;BME280;39326;42.650;23.248;2023-03-23T02:06:45;92501.00;;;4.97;86.80
53041;BME280;39326;42.650;23.248;2023-03-23T02:09:12;92496.84;;;4.96;86.56
53041;BME280;39326;42.650;23.248;2023-03-23T02:11:43;92499.47;;;4.96;86.41
53041;BME280;39326;42.650;23.248;2023-03-23T02:14:09;92497.19;;;4.94;86.08
53041;BME280;39326;42.650;23.248;2023-03-23T02:27:08;92519.38;;;4.90;87.25
53041;BME280;39326;42.650;23.248;2023-03-23T02:35:00;92504.34;;;5.13;87.24
53041;BME280;39326;42.650;23.248;2023-03-23T02:37:32;92510.59;;;5.25;87.32
53041;BME280;39326;42.650;23.248;2023-03-23T02:40:05;92507.03;;;5.36;87.28
53041;BME280;39326;42.650;23.248;2023-03-23T02:42:39;92502.66;;;5.44;86.97
53041;BME280;39326;42.650;23.248;2023-03-23T02:45:09;92504.94;;;5.45;86.58
53041;BME280;39326;42.650;23.248;2023-03-23T02:47:37;92501.16;;;5.46;86.49
53041;BME280;39326;42.650;23.248;2023-03-23T02:50:05;92510.34;;;5.53;85.83
53041;BME280;39326;42.650;23.248;2023-03-23T02:52:33;92511.47;;;5.52;85.39
53041;BME280;39326;42.650;23.248;2023-03-23T02:55:00;92511.81;;;5.50;84.84
53041;BME280;39326;42.650;23.248;2023-03-23T02:57:27;92514.25;;;5.39;85.37
53041;BME280;39326;42.650;23.248;2023-03-23T02:59:53;92509.25;;;5.34;85.12
53041;BME280;39326;42.650;23.248;2023-03-23T03:02:23;92519.34;;;5.29;85.02
53041;BME280;39326;42.650;23.248;2023-03-23T03:10:03;92521.47;;;5.19;84.73
53041;BME280;39326;42.650;23.248;2023-03-23T03:12:40;92525.63;;;5.20;84.68
53041;BME280;39326;42.650;23.248;2023-03-23T03:15:29;92528.63;;;5.19;84.67
53041;BME280;39326;42.650;23.248;2023-03-23T03:18:16;92534.09;;;5.10;84.49
53041;BME280;39326;42.650;23.248;2023-03-23T03:20:46;92528.00;;;5.06;84.63
53041;BME280;39326;42.650;23.248;2023-03-23T03:23:14;92533.63;;;5.05;84.53
53041;BME280;39326;42.650;23.248;2023-03-23T03:25:42;92535.44;;;5.01;84.28
53041;BME280;39326;42.650;23.248;2023-03-23T03:28:14;92539.03;;;4.92;84.70
53041;BME280;39326;42.650;23.248;2023-03-23T03:30:43;92528.75;;;4.87;84.54
53041;BME280;39326;42.650;23.248;2023-03-23T03:33:10;92536.25;;;4.85;84.88
53041;BME280;39326;42.650;23.248;2023-03-23T03:35:38;92539.34;;;4.87;84.82
53041;BME280;39326;42.650;23.248;2023-03-23T03:38:08;92534.03;;;4.87;84.24
53041;BME280;39326;42.650;23.248;2023-03-23T03:40:33;92541.03;;;4.80;84.47
53041;BME280;39326;42.650;23.248;2023-03-23T03:42:59;92536.06;;;4.75;84.57
53041;BME280;39326;42.650;23.248;2023-03-23T03:45:24;92536.59;;;4.64;84.39
53041;BME280;39326;42.650;23.248;2023-03-23T03:47:50;92535.13;;;4.67;84.55
53041;BME280;39326;42.650;23.248;2023-03-23T03:50:15;92534.09;;;4.72;84.44
53041;BME280;39326;42.650;23.248;2023-03-23T03:52:41;92539.00;;;4.73;84.39
53041;BME280;39326;42.650;23.248;2023-03-23T03:55:08;92539.78;;;4.74;84.50
53041;BME280;39326;42.650;23.248;2023-03-23T03:57:34;92543.47;;;4.69;84.82
53041;BME280;39326;42.650;23.248;2023-03-23T04:00:00;92536.22;;;4.66;84.68
53041;BME280;39326;42.650;23.248;2023-03-23T04:02:25;92530.44;;;4.60;84.89
53041;BME280;39326;42.650;23.248;2023-03-23T04:04:51;92532.31;;;4.60;84.10
53041;BME280;39326;42.650;23.248;2023-03-23T04:07:19;92530.50;;;4.45;84.97
53041;BME280;39326;42.650;23.248;2023-03-23T04:09:46;92535.53;;;4.34;85.27
53041;BME280;39326;42.650;23.248;2023-03-23T04:12:16;92522.69;;;4.32;85.18
53041;BME280;39326;42.650;23.248;2023-03-23T04:14:41;92535.28;;;4.39;84.83
53041;BME280;39326;42.650;23.248;2023-03-23T04:17:07;92529.66;;;4.40;85.08
53041;BME280;39326;42.650;23.248;2023-03-23T04:19:35;92531.94;;;4.42;85.83
53041;BME280;39326;42.650;23.248;2023-03-23T04:22:02;92527.44;;;4.43;86.06
53041;BME280;39326;42.650;23.248;2023-03-23T04:24:28;92530.84;;;4.43;85.83
53041;BME280;39326;42.650;23.248;2023-03-23T04:26:56;92530.91;;;4.47;85.99
53041;BME280;39326;42.650;23.248;2023-03-23T04:29:21;92535.94;;;4.52;85.67
53041;BME280;39326;42.650;23.248;2023-03-23T04:31:47;92542.75;;;4.53;85.73
53041;BME280;39326;42.650;23.248;2023-03-23T04:34:16;92540.88;;;4.53;85.61
53041;BME280;39326;42.650;23.248;2023-03-23T04:36:41;92534.06;;;4.52;85.72
53041;BME280;39326;42.650;23.248;2023-03-23T04:39:07;92536.78;;;4.56;86.27
53041;BME280;39326;42.650;23.248;2023-03-23T04:41:37;92537.28;;;4.61;85.63
53041;BME280;39326;42.650;23.248;2023-03-23T04:44:03;92537.69;;;4.63;85.88
53041;BME280;39326;42.650;23.248;2023-03-23T04:46:30;92515.16;;;4.50;86.12
53041;BME280;39326;42.650;23.248;2023-03-23T04:48:56;92543.88;;;4.71;85.73
53041;BME280;39326;42.650;23.248;2023-03-23T04:51:24;92542.50;;;4.77;85.71
53041;BME280;39326;42.650;23.248;2023-03-23T04:53:51;92548.19;;;4.79;85.62
53041;BME280;39326;42.650;23.248;2023-03-23T04:56:17;92551.69;;;4.83;85.18
53041;BME280;39326;42.650;23.248;2023-03-23T04:58:43;92548.38;;;4.86;84.93
53041;BME280;39326;42.650;23.248;2023-03-23T05:01:10;92549.53;;;4.89;84.96
53041;BME280;39326;42.650;23.248;2023-03-23T05:03:39;92552.59;;;4.91;84.71
53041;BME280;39326;42.650;23.248;2023-03-23T05:06:05;92562.81;;;4.92;85.03
53041;BME280;39326;42.650;23.248;2023-03-23T05:08:31;92553.31;;;4.88;85.12
53041;BME280;39326;42.650;23.248;2023-03-23T05:10:59;92554.06;;;4.88;84.91
53041;BME280;39326;42.650;23.248;2023-03-23T05:13:25;92557.31;;;4.82;85.28
53041;BME280;39326;42.650;23.248;2023-03-23T05:15:51;92563.72;;;4.81;85.15
53041;BME280;39326;42.650;23.248;2023-03-23T05:18:17;92567.47;;;4.80;85.04
53041;BME280;39326;42.650;23.248;2023-03-23T05:20:43;92569.34;;;4.79;85.30
53041;BME280;39326;42.650;23.248;2023-03-23T05:23:11;92569.00;;;4.81;85.39
53041;BME280;39326;42.650;23.248;2023-03-23T05:25:37;92567.91;;;4.82;85.17
53041;BME280;39326;42.650;23.248;2023-03-23T05:28:09;92566.19;;;4.74;85.78
53041;BME280;39326;42.650;23.248;2023-03-23T05:30:37;92569.53;;;4.71;85.49
53041;BME280;39326;42.650;23.248;2023-03-23T05:33:03;92567.66;;;4.71;85.45
53041;BME280;39326;42.650;23.248;2023-03-23T05:35:29;92581.47;;;4.64;86.10
53041;BME280;39326;42.650;23.248;2023-03-23T05:37:55;92578.94;;;4.68;85.81
53041;BME280;39326;42.650;23.248;2023-03-23T05:40:22;92580.22;;;4.58;86.72
53041;BME280;39326;42.650;23.248;2023-03-23T05:42:51;92583.34;;;4.64;86.71
53041;BME280;39326;42.650;23.248;2023-03-23T05:45:18;92584.69;;;4.74;86.96
53041;BME280;39326;42.650;23.248;2023-03-23T05:47:44;92580.66;;;4.80;87.15
53041;BME280;39326;42.650;23.248;2023-03-23T05:50:11;92589.91;;;4.70;87.75
53041;BME280;39326;42.650;23.248;2023-03-23T05:52:38;92590.75;;;4.74;87.46
53041;BME280;39326;42.650;23.248;2023-03-23T05:55:04;92595.78;;;4.63;88.29
53041;BME280;39326;42.650;23.248;2023-03-23T05:57:31;92601.00;;;4.60;89.58
53041;BME280;39326;42.650;23.248;2023-03-23T05:59:56;92599.72;;;4.69;89.53
53041;BME280;39326;42.650;23.248;2023-03-23T06:02:23;92592.34;;;4.79;89.15
53041;BME280;39326;42.650;23.248;2023-03-23T06:04:50;92584.38;;;4.75;89.11
53041;BME280;39326;42.650;23.248;2023-03-23T06:07:15;92602.03;;;4.90;88.29
53041;BME280;39326;42.650;23.248;2023-03-23T06:09:41;92602.91;;;4.79;89.28
53041;BME280;39326;42.650;23.248;2023-03-23T06:12:08;92613.97;;;4.84;89.41
53041;BME280;39326;42.650;23.248;2023-03-23T06:14:35;92612.81;;;4.66;90.62
53041;BME280;39326;42.650;23.248;2023-03-23T06:17:01;92604.31;;;4.92;89.37
53041;BME280;39326;42.650;23.248;2023-03-23T06:19:27;92601.88;;;5.18;88.01
53041;BME280;39326;42.650;23.248;2023-03-23T06:21:54;92601.03;;;5.14;88.85
53041;BME280;39326;42.650;23.248;2023-03-23T06:24:20;92600.69;;;5.16;88.95
53041;BME280;39326;42.650;23.248;2023-03-23T06:26:46;92598.25;;;5.27;88.77
53041;BME280;39326;42.650;23.248;2023-03-23T06:29:13;92600.06;;;5.42;88.52
53041;BME280;39326;42.650;23.248;2023-03-23T06:31:44;92596.31;;;5.62;87.60
53041;BME280;39326;42.650;23.248;2023-03-23T06:34:10;92606.50;;;5.83;87.19
53041;BME280;39326;42.650;23.248;2023-03-23T06:36:36;92606.22;;;5.88;86.87
53041;BME280;39326;42.650;23.248;2023-03-23T06:39:04;92604.16;;;6.01;86.72
53041;BME280;39326;42.650;23.248;2023-03-23T06:41:30;92603.97;;;5.90;87.37
53041;BME280;39326;42.650;23.248;2023-03-23T06:43:56;92616.59;;;6.20;86.32
53041;BME280;39326;42.650;23.248;2023-03-23T06:46:22;92615.66;;;6.31;85.85
53041;BME280;39326;42.650;23.248;2023-03-23T06:48:47;92612.09;;;6.47;85.40
53041;BME280;39326;42.650;23.248;2023-03-23T06:51:15;92612.47;;;6.45;84.82
53041;BME280;39326;42.650;23.248;2023-03-23T06:53:41;92625.41;;;6.27;85.95
53041;BME280;39326;42.650;23.248;2023-03-23T06:56:07;92614.06;;;6.50;85.75
53041;BME280;39326;42.650;23.248;2023-03-23T06:58:32;92616.88;;;6.61;85.33
53041;BME280;39326;42.650;23.248;2023-03-23T07:00:58;92626.88;;;6.48;86.70
53041;BME280;39326;42.650;23.248;2023-03-23T07:03:24;92619.59;;;6.64;85.80
53041;BME280;39326;42.650;23.248;2023-03-23T07:05:50;92626.63;;;6.79;85.34
53041;BME280;39326;42.650;23.248;2023-03-23T07:08:16;92624.50;;;6.89;84.88
53041;BME280;39326;42.650;23.248;2023-03-23T07:10:41;92624.78;;;7.10;84.53
53041;BME280;39326;42.650;23.248;2023-03-23T07:13:10;92623.63;;;7.07;84.26
53041;BME280;39326;42.650;23.248;2023-03-23T07:15:35;92626.59;;;7.02;84.42
53041;BME280;39326;42.650;23.248;2023-03-23T07:18:02;92624.41;;;7.08;84.37
53041;BME280;39326;42.650;23.248;2023-03-23T07:20:27;92624.84;;;7.14;84.32
53041;BME280;39326;42.650;23.248;2023-03-23T07:22:53;92630.78;;;7.33;83.99
53041;BME280;39326;42.650;23.248;2023-03-23T07:25:19;92623.06;;;7.21;84.04
53041;BME280;39326;42.650;23.248;2023-03-23T07:27:45;92628.56;;;7.09;84.08
53041;BME280;39326;42.650;23.248;2023-03-23T07:30:12;92629.13;;;7.22;83.28
53041;BME280;39326;42.650;23.248;2023-03-23T07:32:38;92633.94;;;7.43;82.90
53041;BME280;39326;42.650;23.248;2023-03-23T07:35:03;92635.69;;;7.31;84.02
53041;BME280;39326;42.650;23.248;2023-03-23T07:37:29;92638.66;;;7.26;84.29
53041;BME280;39326;42.650;23.248;2023-03-23T07:39:55;92641.09;;;7.38;83.62
53041;BME280;39326;42.650;23.248;2023-03-23T07:42:20;92642.94;;;7.68;83.68
53041;BME280;39326;42.650;23.248;2023-03-23T07:44:46;92640.56;;;7.93;82.64
53041;BME280;39326;42.650;23.248;2023-03-23T07:47:11;92641.06;;;8.39;82.41
53041;BME280;39326;42.650;23.248;2023-03-23T07:49:37;92649.00;;;8.77;81.70
53041;BME280;39326;42.650;23.248;2023-03-23T07:52:02;92645.56;;;8.76;79.98
53041;BME280;39326;42.650;23.248;2023-03-23T07:54:29;92647.94;;;8.92;78.40
53041;BME280;39326;42.650;23.248;2023-03-23T07:56:54;92654.72;;;9.41;78.16
53041;BME280;39326;42.650;23.248;2023-03-23T07:59:20;92654.72;;;9.41;76.74
53041;BME280;39326;42.650;23.248;2023-03-23T08:01:46;92643.13;;;9.81;76.50
53041;BME280;39326;42.650;23.248;2023-03-23T08:04:11;92654.19;;;9.87;75.20
53041;BME280;39326;42.650;23.248;2023-03-23T08:06:38;92661.19;;;10.30;74.11
53041;BME280;39326;42.650;23.248;2023-03-23T08:09:05;92667.25;;;10.20;72.30
53041;BME280;39326;42.650;23.248;2023-03-23T08:11:34;92668.81;;;10.39;71.69
53041;BME280;39326;42.650;23.248;2023-03-23T08:14:00;92670.41;;;10.79;71.50
53041;BME280;39326;42.650;23.248;2023-03-23T08:16:25;92652.84;;;10.89;71.01
53041;BME280;39326;42.650;23.248;2023-03-23T08:18:51;92669.25;;;10.59;70.01
53041;BME280;39326;42.650;23.248;2023-03-23T08:21:17;92659.72;;;10.54;70.13
53041;BME280;39326;42.650;23.248;2023-03-23T08:23:42;92661.63;;;10.65;70.09
53041;BME280;39326;42.650;23.248;2023-03-23T08:26:09;92658.97;;;11.00;69.76
53041;BME280;39326;42.650;23.248;2023-03-23T08:28:35;92660.09;;;10.88;68.07
53041;BME280;39326;42.650;23.248;2023-03-23T08:31:09;92655.88;;;11.45;66.26
53041;BME280;39326;42.650;23.248;2023-03-23T08:33:35;92658.84;;;11.86;64.61
53041;BME280;39326;42.650;23.248;2023-03-23T08:36:02;92659.56;;;11.97;63.24
53041;BME280;39326;42.650;23.248;2023-03-23T08:38:28;92645.06;;;11.91;62.09
53041;BME280;39326;42.650;23.248;2023-03-23T08:40:58;92654.78;;;12.33;60.92
53041;BME280;39326;42.650;23.248;2023-03-23T08:43:24;92648.25;;;12.41;59.89
53041;BME280;39326;42.650;23.248;2023-03-23T08:45:50;92656.75;;;12.29;57.68
53041;BME280;39326;42.650;23.248;2023-03-23T08:48:16;92659.63;;;12.52;57.61
53041;BME280;39326;42.650;23.248;2023-03-23T08:50:43;92657.75;;;12.49;57.96
53041;BME280;39326;42.650;23.248;2023-03-23T08:53:09;92660.09;;;12.44;57.13
53041;BME280;39326;42.650;23.248;2023-03-23T08:55:35;92666.09;;;12.62;56.72
53041;BME280;39326;42.650;23.248;2023-03-23T08:58:00;92657.28;;;12.69;54.19
53041;BME280;39326;42.650;23.248;2023-03-23T09:00:26;92651.25;;;12.50;54.11
53041;BME280;39326;42.650;23.248;2023-03-23T09:02:53;92656.78;;;12.18;53.34
53041;BME280;39326;42.650;23.248;2023-03-23T09:05:22;92655.16;;;12.39;54.76
53041;BME280;39326;42.650;23.248;2023-03-23T09:07:50;92663.00;;;11.94;55.00
53041;BME280;39326;42.650;23.248;2023-03-23T09:10:17;92655.75;;;11.94;55.35
53041;BME280;39326;42.650;23.248;2023-03-23T09:12:44;92656.50;;;11.95;56.09
53041;BME280;39326;42.650;23.248;2023-03-23T09:15:12;92647.31;;;12.00;56.06
53041;BME280;39326;42.650;23.248;2023-03-23T09:17:44;92652.41;;;12.46;54.90
53041;BME280;39326;42.650;23.248;2023-03-23T09:20:11;92656.47;;;12.79;54.08
53041;BME280;39326;42.650;23.248;2023-03-23T09:22:39;92653.53;;;13.08;52.51
53041;BME280;39326;42.650;23.248;2023-03-23T09:25:07;92653.41;;;13.25;51.66
53041;BME280;39326;42.650;23.248;2023-03-23T09:27:34;92649.16;;;13.66;50.46
53041;BME280;39326;42.650;23.248;2023-03-23T09:30:04;92648.28;;;13.79;50.57
53041;BME280;39326;42.650;23.248;2023-03-23T09:32:32;92644.53;;;13.70;49.70
53041;BME280;39326;42.650;23.248;2023-03-23T09:35:00;92634.84;;;13.83;51.20
53041;BME280;39326;42.650;23.248;2023-03-23T09:37:26;92640.75;;;14.01;49.77
53041;BME280;39326;42.650;23.248;2023-03-23T09:39:51;92633.53;;;13.98;49.10
53041;BME280;39326;42.650;23.248;2023-03-23T09:50:16;92636.75;;;13.86;48.08
53041;BME280;39326;42.650;23.248;2023-03-23T09:52:54;92637.34;;;13.63;49.11
53041;BME280;39326;42.650;23.248;2023-03-23T09:55:21;92630.31;;;13.76;48.67
53041;BME280;39326;42.650;23.248;2023-03-23T09:58:01;92625.22;;;14.20;45.94
53041;BME280;39326;42.650;23.248;2023-03-23T10:00:35;92631.41;;;14.44;47.10
53041;BME280;39326;42.650;23.248;2023-03-23T10:05:36;92624.22;;;14.64;47.16
53041;BME280;39326;42.650;23.248;2023-03-23T10:08:11;92629.28;;;14.58;46.46
53041;BME280;39326;42.650;23.248;2023-03-23T10:13:32;92626.94;;;14.87;45.87
53041;BME280;39326;42.650;23.248;2023-03-23T10:16:02;92632.22;;;14.95;46.27
53041;BME280;39326;42.650;23.248;2023-03-23T10:18:43;92627.41;;;14.82;45.22
53041;BME280;39326;42.650;23.248;2023-03-23T10:21:17;92623.97;;;15.29;46.12
53041;BME280;39326;42.650;23.248;2023-03-23T10:23:56;92621.59;;;15.34;44.40
53041;BME280;39326;42.650;23.248;2023-03-23T10:26:33;92617.50;;;15.26;44.81
53041;BME280;39326;42.650;23.248;2023-03-23T10:32:15;92618.53;;;15.76;44.12
53041;BME280;39326;42.650;23.248;2023-03-23T10:34:49;92612.31;;;15.39;44.16
53041;BME280;39326;42.650;23.248;2023-03-23T10:39:53;92622.59;;;14.97;45.67
53041;BME280;39326;42.650;23.248;2023-03-23T10:42:36;92619.97;;;14.94;43.25
53041;BME280;39326;42.650;23.248;2023-03-23T10:45:26;92608.72;;;14.75;44.46
53041;BME280;39326;42.650;23.248;2023-03-23T10:50:34;92608.94;;;14.84;43.52
53041;BME280;39326;42.650;23.248;2023-03-23T10:53:11;92600.81;;;14.91;44.75
53041;BME280;39326;42.650;23.248;2023-03-23T10:55:41;92604.97;;;15.19;45.07
53041;BME280;39326;42.650;23.248;2023-03-23T10:58:11;92594.47;;;15.49;45.30
53041;BME280;39326;42.650;23.248;2023-03-23T11:00:45;92595.22;;;15.49;44.68
53041;BME280;39326;42.650;23.248;2023-03-23T11:08:20;92606.16;;;14.68;44.46
53041;BME280;39326;42.650;23.248;2023-03-23T11:11:10;92604.00;;;14.83;43.77
53041;BME280;39326;42.650;23.248;2023-03-23T11:13:40;92606.00;;;15.02;45.32
53041;BME280;39326;42.650;23.248;2023-03-23T11:16:09;92599.06;;;15.05;43.48
53041;BME280;39326;42.650;23.248;2023-03-23T11:18:39;92591.56;;;15.39;42.60
53041;BME280;39326;42.650;23.248;2023-03-23T11:21:07;92587.22;;;15.65;42.18
53041;BME280;39326;42.650;23.248;2023-03-23T11:23:39;92585.72;;;15.44;43.54
53041;BME280;39326;42.650;23.248;2023-03-23T11:28:48;92579.72;;;15.96;42.89
53041;BME280;39326;42.650;23.248;2023-03-23T11:31:16;92582.88;;;16.11;42.53
53041;BME280;39326;42.650;23.248;2023-03-23T11:34:04;92569.03;;;15.73;42.51
53041;BME280;39326;42.650;23.248;2023-03-23T11:36:40;92577.38;;;15.98;42.51
53041;BME280;39326;42.650;23.248;2023-03-23T11:39:24;92574.84;;;16.28;42.38
53041;BME280;39326;42.650;23.248;2023-03-23T11:41:50;92576.16;;;16.39;42.35
53041;BME280;39326;42.650;23.248;2023-03-23T11:44:16;92560.75;;;16.40;40.72
53041;BME280;39326;42.650;23.248;2023-03-23T11:47:04;92555.25;;;15.71;38.66
53041;BME280;39326;42.650;23.248;2023-03-23T11:52:23;92555.09;;;16.34;41.93
53041;BME280;39326;42.650;23.248;2023-03-23T11:55:22;92543.00;;;16.59;41.06
53041;BME280;39326;42.650;23.248;2023-03-23T11:57:48;92556.44;;;16.26;41.41
53041;BME280;39326;42.650;23.248;2023-03-23T12:00:15;92552.91;;;16.29;41.74
53041;BME280;39326;42.650;23.248;2023-03-23T12:03:02;92556.72;;;16.64;40.17
53041;BME280;39326;42.650;23.248;2023-03-23T12:13:50;92545.59;;;17.27;39.18
53041;BME280;39326;42.650;23.248;2023-03-23T12:34:50;92543.31;;;17.26;39.51
53041;BME280;39326;42.650;23.248;2023-03-23T12:47:54;92532.13;;;17.11;37.31
53041;BME280;39326;42.650;23.248;2023-03-23T12:50:45;92530.53;;;17.43;36.64
53041;BME280;39326;42.650;23.248;2023-03-23T12:53:21;92528.84;;;17.78;36.43
53041;BME280;39326;42.650;23.248;2023-03-23T12:58:26;92533.19;;;17.88;37.59
53041;BME280;39326;42.650;23.248;2023-03-23T13:01:04;92522.72;;;17.61;37.66
53041;BME280;39326;42.650;23.248;2023-03-23T13:06:33;92527.44;;;17.86;36.36
53041;BME280;39326;42.650;23.248;2023-03-23T13:09:05;92516.84;;;17.79;37.40
53041;BME280;39326;42.650;23.248;2023-03-23T13:11:35;92513.22;;;17.98;36.82
53041;BME280;39326;42.650;23.248;2023-03-23T13:14:29;92512.66;;;17.20;36.64
53041;BME280;39326;42.650;23.248;2023-03-23T13:22:54;92507.84;;;16.33;38.98
53041;BME280;39326;42.650;23.248;2023-03-23T13:28:00;92508.28;;;17.26;37.66
53041;BME280;39326;42.650;23.248;2023-03-23T13:30:27;92511.69;;;17.55;36.25
53041;BME280;39326;42.650;23.248;2023-03-23T13:33:02;92496.72;;;17.67;36.31
53041;BME280;39326;42.650;23.248;2023-03-23T13:35:34;92502.19;;;17.80;35.19
53041;BME280;39326;42.650;23.248;2023-03-23T13:38:01;92498.25;;;17.68;35.43
53041;BME280;39326;42.650;23.248;2023-03-23T13:40:29;92497.66;;;17.48;36.63
53041;BME280;39326;42.650;23.248;2023-03-23T13:42:58;92508.91;;;17.59;36.42
53041;BME280;39326;42.650;23.248;2023-03-23T13:45:42;92503.72;;;17.52;35.93
53041;BME280;39326;42.650;23.248;2023-03-23T13:51:03;92495.13;;;17.70;35.93
53041;BME280;39326;42.650;23.248;2023-03-23T13:53:30;92494.41;;;17.40;35.70
53041;BME280;39326;42.650;23.248;2023-03-23T13:56:17;92491.97;;;17.58;35.54
53041;BME280;39326;42.650;23.248;2023-03-23T13:58:47;92489.22;;;17.33;36.32
53041;BME280;39326;42.650;23.248;2023-03-23T14:01:19;92497.63;;;17.35;36.60
53041;BME280;39326;42.650;23.248;2023-03-23T14:03:59;92488.53;;;17.29;36.77
53041;BME280;39326;42.650;23.248;2023-03-23T14:06:26;92491.25;;;17.29;36.68
53041;BME280;39326;42.650;23.248;2023-03-23T14:09:14;92488.53;;;17.29;37.13
53041;BME280;39326;42.650;23.248;2023-03-23T14:11:59;92480.41;;;17.16;36.97
53041;BME280;39326;42.650;23.248;2023-03-23T14:14:33;92481.41;;;17.22;37.04
53041;BME280;39326;42.650;23.248;2023-03-23T14:17:08;92482.34;;;17.45;36.50
53041;BME280;39326;42.650;23.248;2023-03-23T14:19:38;92472.03;;;17.56;36.35
53041;BME280;39326;42.650;23.248;2023-03-23T14:22:24;92472.03;;;17.27;35.72
53041;BME280;39326;42.650;23.248;2023-03-23T14:24:51;92469.34;;;17.27;36.66
53041;BME280;39326;42.650;23.248;2023-03-23T14:27:19;92473.13;;;17.00;37.13
53041;BME280;39326;42.650;23.248;2023-03-23T14:29:46;92476.66;;;16.97;37.27
53041;BME280;39326;42.650;23.248;2023-03-23T14:32:17;92470.69;;;17.06;36.79
53041;BME280;39326;42.650;23.248;2023-03-23T14:34:47;92481.41;;;16.93;37.05
53041;BME280;39326;42.650;23.248;2023-03-23T14:37:14;92470.44;;;16.68;37.21
53041;BME280;39326;42.650;23.248;2023-03-23T14:39:44;92479.47;;;16.61;38.20
53041;BME280;39326;42.650;23.248;2023-03-23T14:42:13;92480.81;;;16.53;38.14
53041;BME280;39326;42.650;23.248;2023-03-23T14:44:41;92484.19;;;16.24;38.58
53041;BME280;39326;42.650;23.248;2023-03-23T14:47:15;92484.00;;;16.15;38.72
53041;BME280;39326;42.650;23.248;2023-03-23T14:49:45;92479.88;;;15.94;39.09
53041;BME280;39326;42.650;23.248;2023-03-23T14:52:13;92461.81;;;15.75;39.12